createdAt,value
2023-10-25T00:00:21.511Z,93300.34
2023-10-25T00:01:18.331Z,93291.50
2023-10-25T00:02:15.078Z,93284.53
2023-10-25T00:03:13.807Z,93288.28
2023-10-25T00:04:11.403Z,93287.81
2023-10-25T00:05:08.864Z,93276.81
2023-10-25T00:06:05.690Z,93289.50
2023-10-25T00:07:02.483Z,93293.00
2023-10-25T00:07:59.357Z,93290.31
2023-10-25T00:08:55.983Z,93283.00
2023-10-25T00:09:52.755Z,93274.56
2023-10-25T00:10:49.476Z,93281.50
2023-10-25T00:11:46.115Z,93277.63
2023-10-25T00:12:42.788Z,93271.13
2023-10-25T00:13:39.531Z,93278.09
2023-10-25T00:14:36.853Z,93227.41
2023-10-25T00:15:33.539Z,93282.28
2023-10-25T00:16:30.339Z,93291.56
2023-10-25T00:17:27.114Z,93298.47
2023-10-25T00:18:25.507Z,93295.72
2023-10-25T00:19:22.166Z,93294.22
2023-10-25T00:20:19.402Z,93278.88
2023-10-25T00:21:16.083Z,93281.94
2023-10-25T00:22:13.337Z,93272.75
2023-10-25T00:23:10.061Z,93280.03
2023-10-25T00:24:07.191Z,93282.66
2023-10-25T00:25:04.141Z,93278.81
2023-10-25T00:26:00.842Z,93284.22
2023-10-25T00:26:57.595Z,93284.19
2023-10-25T00:27:54.335Z,93273.81
2023-10-25T00:28:51.181Z,93279.22
2023-10-25T00:29:47.898Z,93283.03
2023-10-25T00:30:48.389Z,93278.81
2023-10-25T00:31:45.352Z,93277.69
2023-10-25T00:32:44.072Z,93273.84
2023-10-25T00:33:40.977Z,93270.84
2023-10-25T00:34:37.725Z,93271.59
2023-10-25T00:35:34.578Z,93272.34
2023-10-25T00:36:31.202Z,93267.72
2023-10-25T00:37:27.962Z,93260.78
2023-10-25T00:38:24.752Z,93261.19
2023-10-25T00:39:21.409Z,93258.16
2023-10-25T00:40:18.119Z,93232.03
2023-10-25T00:41:14.800Z,93256.63
2023-10-25T00:42:11.455Z,93247.03
2023-10-25T00:43:20.608Z,93248.56
2023-10-25T00:44:17.292Z,93251.25
2023-10-25T00:45:14.753Z,93242.00
2023-10-25T00:46:16.352Z,93246.63
2023-10-25T00:47:13.619Z,93231.28
2023-10-25T00:48:10.481Z,93241.66
2023-10-25T00:49:07.828Z,93243.19
2023-10-25T00:50:05.117Z,93241.63
2023-10-25T00:51:02.227Z,93245.06
2023-10-25T00:51:59.576Z,93244.31
2023-10-25T00:52:56.437Z,93252.38
2023-10-25T00:53:55.568Z,93244.31
2023-10-25T00:54:53.258Z,93228.16
2023-10-25T00:55:51.610Z,93245.81
2023-10-25T00:56:50.499Z,93241.63
2023-10-25T00:57:47.252Z,93235.47
2023-10-25T00:58:46.457Z,93235.88
2023-10-25T00:59:43.735Z,93240.09
2023-10-25T01:00:43.907Z,93228.19
2023-10-25T01:01:42.644Z,93239.31
2023-10-25T01:02:39.447Z,93236.25
2023-10-25T01:03:37.110Z,93239.69
2023-10-25T01:04:34.674Z,93247.38
2023-10-25T01:05:31.553Z,93235.50
2023-10-25T01:06:28.304Z,93232.81
2023-10-25T01:07:25.030Z,93238.94
2023-10-25T01:08:22.870Z,93212.09
2023-10-25T01:09:19.580Z,93232.03
2023-10-25T01:10:16.272Z,93233.56
2023-10-25T01:11:13.305Z,93223.97
2023-10-25T01:12:10.919Z,93234.75
2023-10-25T01:13:07.953Z,93232.44
2023-10-25T01:14:06.022Z,93242.78
2023-10-25T01:15:02.913Z,93232.81
2023-10-25T01:15:59.856Z,93245.47
2023-10-25T01:16:56.766Z,93232.41
2023-10-25T01:17:53.570Z,93237.78
2023-10-25T01:18:50.375Z,93239.34
2023-10-25T01:19:47.006Z,93229.72
2023-10-25T01:20:46.708Z,93229.72
2023-10-25T01:21:43.886Z,93232.00
2023-10-25T01:22:40.732Z,93230.84
2023-10-25T01:23:37.419Z,93225.09
2023-10-25T01:24:34.132Z,93231.97
2023-10-25T01:25:30.778Z,93231.59
2023-10-25T01:26:27.464Z,93236.97
2023-10-25T01:27:24.263Z,93235.09
2023-10-25T01:28:20.967Z,93234.72
2023-10-25T01:29:17.646Z,93235.50
2023-10-25T01:30:14.418Z,93228.97
2023-10-25T01:31:11.126Z,93230.09
2023-10-25T01:32:08.264Z,93218.94
2023-10-25T01:33:05.133Z,93215.06
2023-10-25T01:34:01.953Z,93212.78
2023-10-25T01:34:58.693Z,93214.69
2023-10-25T01:35:55.330Z,93219.31
2023-10-25T01:36:52.015Z,93230.44
2023-10-25T01:37:48.995Z,93228.13
2023-10-25T01:38:45.827Z,93236.19
2023-10-25T01:39:42.756Z,93236.22
2023-10-25T01:40:39.959Z,93217.38
2023-10-25T01:41:36.639Z,93229.63
2023-10-25T01:42:33.327Z,93231.88
2023-10-25T01:43:30.191Z,93234.63
2023-10-25T01:44:26.850Z,93234.97
2023-10-25T01:45:24.518Z,93230.78
2023-10-25T01:46:21.312Z,93236.16
2023-10-25T01:47:18.085Z,93230.72
2023-10-25T01:48:14.781Z,93237.59
2023-10-25T01:49:11.533Z,93233.44
2023-10-25T01:50:09.270Z,93236.44
2023-10-25T01:51:09.916Z,93233.03
2023-10-25T01:52:06.727Z,93234.16
2023-10-25T01:53:04.563Z,93238.34
2023-10-25T01:54:01.208Z,93237.66
2023-10-25T01:54:57.972Z,93233.81
2023-10-25T01:55:54.789Z,93237.22
2023-10-25T01:56:51.544Z,93233.72
2023-10-25T01:57:48.291Z,93226.81
2023-10-25T01:58:45.104Z,93227.25
2023-10-25T01:59:42.149Z,93222.31
2023-10-25T02:00:41.133Z,93225.75
2023-10-25T02:01:37.892Z,93238.72
2023-10-25T02:02:35.135Z,93235.72
2023-10-25T02:03:32.076Z,93236.09
2023-10-25T02:04:29.058Z,93237.22
2023-10-25T02:05:26.194Z,93240.72
2023-10-25T02:06:23.000Z,93239.19
2023-10-25T02:07:19.825Z,93241.78
2023-10-25T02:08:17.831Z,93243.38
2023-10-25T02:09:14.531Z,93240.31
2023-10-25T02:10:11.434Z,93243.00
2023-10-25T02:11:08.748Z,93236.47
2023-10-25T02:12:05.817Z,93244.19
2023-10-25T02:13:02.529Z,93246.09
2023-10-25T02:13:59.381Z,93242.66
2023-10-25T02:14:56.154Z,93236.88
2023-10-25T02:15:52.862Z,93244.59
2023-10-25T02:16:50.494Z,93237.25
2023-10-25T02:17:47.321Z,93236.88
2023-10-25T02:18:44.411Z,93236.88
2023-10-25T02:19:42.740Z,93225.34
2023-10-25T02:20:42.078Z,93219.56
2023-10-25T02:21:39.027Z,93213.47
2023-10-25T02:22:35.713Z,93215.72
2023-10-25T02:23:32.425Z,93216.47
2023-10-25T02:24:29.144Z,93207.63
2023-10-25T02:25:25.870Z,93205.34
2023-10-25T02:26:22.695Z,93204.59
2023-10-25T02:27:19.433Z,93205.81
2023-10-25T02:28:16.207Z,93202.00
2023-10-25T02:29:13.127Z,93200.81
2023-10-25T02:30:10.212Z,93198.13
2023-10-25T02:31:07.094Z,93205.44
2023-10-25T02:32:05.379Z,93197.03
2023-10-25T02:33:02.102Z,93194.66
2023-10-25T02:33:58.874Z,93191.91
2023-10-25T02:34:55.603Z,93192.75
2023-10-25T02:35:53.896Z,93189.28
2023-10-25T02:36:50.616Z,93184.28
2023-10-25T02:37:47.348Z,93192.00
2023-10-25T02:38:44.010Z,93184.00
2023-10-25T02:39:44.306Z,93175.16
2023-10-25T02:40:41.213Z,93177.06
2023-10-25T02:41:38.889Z,93161.72
2023-10-25T02:42:36.582Z,93167.84
2023-10-25T02:43:34.048Z,93170.94
2023-10-25T02:44:30.746Z,93164.81
2023-10-25T02:45:27.431Z,93169.81
2023-10-25T02:46:24.728Z,93174.44
2023-10-25T02:47:21.627Z,93172.53
2023-10-25T02:48:18.326Z,93169.47
2023-10-25T02:49:15.024Z,93159.50
2023-10-25T02:50:11.729Z,93154.53
2023-10-25T02:51:08.544Z,93154.91
2023-10-25T02:52:05.370Z,93151.84
2023-10-25T02:53:02.027Z,93151.88
2023-10-25T02:53:58.676Z,93146.47
2023-10-25T02:54:56.568Z,93146.81
2023-10-25T02:56:03.252Z,93148.38
2023-10-25T02:56:59.925Z,93148.72
2023-10-25T02:57:56.741Z,93152.19
2023-10-25T02:58:53.464Z,93160.63
2023-10-25T02:59:52.859Z,93164.09
2023-10-25T03:00:49.627Z,93162.94
2023-10-25T03:01:46.536Z,93153.72
2023-10-25T03:02:43.452Z,93158.28
2023-10-25T03:03:40.154Z,93150.22
2023-10-25T03:04:36.836Z,93159.84
2023-10-25T03:05:33.580Z,93159.44
2023-10-25T03:06:30.257Z,93161.00
2023-10-25T03:07:26.955Z,93156.78
2023-10-25T03:08:24.100Z,93156.75
2023-10-25T03:09:20.807Z,93160.25
2023-10-25T03:10:20.221Z,93157.19
2023-10-25T03:11:17.103Z,93157.13
2023-10-25T03:12:13.879Z,93158.63
2023-10-25T03:13:10.698Z,93155.22
2023-10-25T03:14:07.623Z,93152.59
2023-10-25T03:15:04.641Z,93148.31
2023-10-25T03:16:01.491Z,93135.66
2023-10-25T03:16:58.375Z,93140.28
2023-10-25T03:17:55.882Z,93129.94
2023-10-25T03:18:52.749Z,93128.41
2023-10-25T03:19:49.429Z,93128.00
2023-10-25T03:20:46.079Z,93139.19
2023-10-25T03:21:43.059Z,93140.75
2023-10-25T03:22:39.834Z,93140.34
2023-10-25T03:23:37.237Z,93138.06
2023-10-25T03:24:34.423Z,93144.97
2023-10-25T03:25:31.157Z,93139.97
2023-10-25T03:26:27.845Z,93146.47
2023-10-25T03:27:24.576Z,93142.66
2023-10-25T03:28:21.304Z,93144.19
2023-10-25T03:29:17.987Z,93143.41
2023-10-25T03:30:14.786Z,93142.28
2023-10-25T03:31:11.832Z,93142.63
2023-10-25T03:32:08.740Z,93145.72
2023-10-25T03:33:05.564Z,93137.66
2023-10-25T03:34:02.354Z,93122.28
2023-10-25T03:34:59.152Z,93126.84
2023-10-25T03:35:56.292Z,93127.53
2023-10-25T03:36:53.030Z,93134.13
2023-10-25T03:37:49.810Z,93132.28
2023-10-25T03:38:46.524Z,93136.16
2023-10-25T03:39:43.589Z,93139.59
2023-10-25T03:40:40.581Z,93135.75
2023-10-25T03:41:37.320Z,93135.34
2023-10-25T03:42:34.138Z,93138.78
2023-10-25T03:43:32.567Z,93137.25
2023-10-25T03:44:29.289Z,93126.53
2023-10-25T03:45:26.115Z,93121.19
2023-10-25T03:46:22.839Z,93120.41
2023-10-25T03:47:19.607Z,93116.56
2023-10-25T03:48:16.271Z,93112.34
2023-10-25T03:49:13.299Z,93105.06
2023-10-25T03:50:10.149Z,93110.47
2023-10-25T03:51:07.806Z,93116.59
2023-10-25T03:52:04.999Z,93107.38
2023-10-25T03:53:01.734Z,93120.41
2023-10-25T03:53:58.686Z,93111.97
2023-10-25T03:54:55.456Z,93116.56
2023-10-25T03:55:58.535Z,93116.22
2023-10-25T03:56:55.198Z,93118.91
2023-10-25T03:57:51.918Z,93110.47
2023-10-25T03:58:48.563Z,93109.31
2023-10-25T03:59:45.322Z,93118.53
2023-10-25T04:00:42.070Z,93119.66
2023-10-25T04:01:42.474Z,93118.13
2023-10-25T04:02:39.324Z,93119.25
2023-10-25T04:03:36.576Z,93116.56
2023-10-25T04:04:33.627Z,93114.66
2023-10-25T04:05:30.518Z,93105.47
2023-10-25T04:06:27.202Z,93105.47
2023-10-25T04:07:23.960Z,93097.41
2023-10-25T04:08:20.841Z,93096.66
2023-10-25T04:09:17.783Z,93102.03
2023-10-25T04:10:14.741Z,93102.81
2023-10-25T04:11:11.453Z,93105.50
2023-10-25T04:12:13.374Z,93109.31
2023-10-25T04:13:11.042Z,93108.91
2023-10-25T04:14:07.704Z,93112.00
2023-10-25T04:15:04.822Z,93118.13
2023-10-25T04:16:03.754Z,93113.91
2023-10-25T04:17:00.494Z,93113.53
2023-10-25T04:17:57.352Z,93098.94
2023-10-25T04:18:54.177Z,93108.53
2023-10-25T04:19:51.454Z,93106.66
2023-10-25T04:20:48.474Z,93108.16
2023-10-25T04:21:45.277Z,93110.06
2023-10-25T04:22:42.075Z,93104.72
2023-10-25T04:23:41.989Z,93106.25
2023-10-25T04:24:38.663Z,93099.75
2023-10-25T04:25:35.461Z,93098.97
2023-10-25T04:26:32.189Z,93095.06
2023-10-25T04:27:28.869Z,93092.00
2023-10-25T04:28:25.644Z,93089.75
2023-10-25T04:29:22.396Z,93087.06
2023-10-25T04:30:19.099Z,93084.38
2023-10-25T04:31:16.336Z,93073.25
2023-10-25T04:32:13.047Z,93084.75
2023-10-25T04:33:09.816Z,93083.59
2023-10-25T04:34:06.505Z,93085.53
2023-10-25T04:35:03.391Z,93072.50
2023-10-25T04:36:00.347Z,93083.59
2023-10-25T04:36:57.166Z,93087.47
2023-10-25T04:37:55.995Z,93091.69
2023-10-25T04:38:52.670Z,93087.44
2023-10-25T04:39:52.500Z,93090.53
2023-10-25T04:40:49.233Z,93087.06
2023-10-25T04:41:45.942Z,93103.97
2023-10-25T04:42:42.724Z,93097.81
2023-10-25T04:43:39.400Z,93093.97
2023-10-25T04:44:36.166Z,93093.22
2023-10-25T04:45:35.938Z,93085.94
2023-10-25T04:46:32.807Z,93094.34
2023-10-25T04:47:29.614Z,93100.84
2023-10-25T04:48:26.849Z,93086.28
2023-10-25T04:49:23.645Z,93077.44
2023-10-25T04:50:21.700Z,93084.34
2023-10-25T04:51:18.373Z,93082.41
2023-10-25T04:52:15.095Z,93071.31
2023-10-25T04:53:12.050Z,93057.88
2023-10-25T04:54:08.730Z,93071.69
2023-10-25T04:55:06.096Z,93080.53
2023-10-25T04:56:02.986Z,93081.25
2023-10-25T04:56:59.749Z,93078.56
2023-10-25T04:57:57.788Z,93075.13
2023-10-25T04:58:54.651Z,93080.47
2023-10-25T04:59:51.910Z,93074.34
2023-10-25T05:00:48.779Z,93075.91
2023-10-25T05:01:45.681Z,93065.16
2023-10-25T05:02:42.447Z,93070.13
2023-10-25T05:03:39.288Z,93062.47
2023-10-25T05:04:36.040Z,93068.25
2023-10-25T05:05:34.055Z,93066.31
2023-10-25T05:06:31.026Z,93064.75
2023-10-25T05:07:27.934Z,93064.41
2023-10-25T05:08:24.844Z,93065.53
2023-10-25T05:09:21.761Z,93058.59
2023-10-25T05:10:19.142Z,93056.72
2023-10-25T05:11:17.340Z,93057.44
2023-10-25T05:12:18.972Z,93065.53
2023-10-25T05:13:16.920Z,93066.28
2023-10-25T05:14:13.967Z,93079.72
2023-10-25T05:15:12.255Z,93074.72
2023-10-25T05:16:09.666Z,93082.78
2023-10-25T05:17:08.252Z,93082.00
2023-10-25T05:18:05.606Z,93078.19
2023-10-25T05:19:02.740Z,93071.59
2023-10-25T05:19:59.638Z,93067.34
2023-10-25T05:21:01.735Z,93065.81
2023-10-25T05:22:00.877Z,93070.41
2023-10-25T05:23:01.226Z,93071.97
2023-10-25T05:23:58.334Z,93068.84
2023-10-25T05:24:55.905Z,93067.38
2023-10-25T05:25:52.818Z,93061.19
2023-10-25T05:26:49.925Z,93068.00
2023-10-25T05:27:47.079Z,93070.72
2023-10-25T05:28:43.963Z,93062.31
2023-10-25T05:29:41.413Z,93067.34
2023-10-25T05:30:38.524Z,93075.78
2023-10-25T05:31:36.358Z,93072.69
2023-10-25T05:32:35.598Z,93062.75
2023-10-25T05:33:33.454Z,93064.63
2023-10-25T05:34:30.858Z,93061.94
2023-10-25T05:35:27.988Z,93064.63
2023-10-25T05:36:25.059Z,93061.94
2023-10-25T05:37:22.050Z,93079.91
2023-10-25T05:38:19.092Z,93074.94
2023-10-25T05:39:16.147Z,93067.56
2023-10-25T05:40:13.641Z,93069.13
2023-10-25T05:41:15.889Z,93056.47
2023-10-25T05:42:22.530Z,93067.25
2023-10-25T05:43:28.904Z,93070.28
2023-10-25T05:44:25.880Z,93082.59
2023-10-25T05:45:22.561Z,93081.03
2023-10-25T05:46:19.334Z,93076.00
2023-10-25T05:47:16.190Z,93074.06
2023-10-25T05:48:16.602Z,93066.00
2023-10-25T05:49:13.789Z,93079.88
2023-10-25T05:50:14.026Z,93084.91
2023-10-25T05:51:10.982Z,93087.94
2023-10-25T05:52:09.301Z,93093.59
2023-10-25T05:53:06.262Z,93095.91
2023-10-25T05:58:34.361Z,93085.78
2023-10-25T05:59:31.758Z,93085.41
2023-10-25T06:00:28.738Z,93080.97
2023-10-25T06:01:51.651Z,93087.06
2023-10-25T06:02:51.066Z,93087.88
2023-10-25T06:03:48.412Z,93088.63
2023-10-25T06:04:45.756Z,93088.16
2023-10-25T06:05:43.948Z,93090.09
2023-10-25T06:06:43.552Z,93097.75
2023-10-25T06:07:40.909Z,93094.66
2023-10-25T06:08:38.034Z,93096.94
2023-10-25T06:09:35.746Z,93093.81
2023-10-25T06:10:32.845Z,93097.66
2023-10-25T06:11:29.958Z,93100.25
2023-10-25T06:12:27.058Z,93098.31
2023-10-25T06:13:24.057Z,93097.19
2023-10-25T06:14:21.146Z,93083.72
2023-10-25T06:15:18.197Z,93095.22
2023-10-25T06:16:15.177Z,93085.91
2023-10-25T06:17:12.179Z,93065.63
2023-10-25T06:18:10.500Z,93098.56
2023-10-25T06:19:07.656Z,93096.56
2023-10-25T06:20:05.652Z,93099.91
2023-10-25T06:21:02.381Z,93109.59
2023-10-25T06:21:59.181Z,93104.19
2023-10-25T06:22:57.789Z,93111.06
2023-10-25T06:23:54.873Z,93102.16
2023-10-25T06:24:51.655Z,93095.53
2023-10-25T06:25:48.350Z,93097.88
2023-10-25T06:26:45.250Z,93102.44
2023-10-25T06:27:42.092Z,93092.50
2023-10-25T06:28:38.768Z,93108.78
2023-10-25T06:29:35.612Z,93111.91
2023-10-25T06:30:34.054Z,93115.88
2023-10-25T06:31:31.004Z,93116.25
2023-10-25T06:32:28.013Z,93114.72
2023-10-25T06:33:26.254Z,93122.78
2023-10-25T06:34:23.024Z,93112.78
2023-10-25T06:35:19.837Z,93113.94
2023-10-25T06:36:17.590Z,93100.47
2023-10-25T06:37:14.572Z,93105.03
2023-10-25T06:38:11.590Z,93100.34
2023-10-25T06:39:08.898Z,93107.66
2023-10-25T06:40:06.656Z,93111.09
2023-10-25T06:41:04.217Z,93122.81
2023-10-25T06:42:01.148Z,93131.59
2023-10-25T06:42:58.130Z,93130.50
2023-10-25T06:43:55.032Z,93112.03
2023-10-25T06:44:52.329Z,93119.31
2023-10-25T06:45:49.654Z,93121.13
2023-10-25T06:46:46.816Z,93115.22
2023-10-25T06:47:44.136Z,93109.84
2023-10-25T06:48:41.344Z,93111.75
2023-10-25T06:49:38.205Z,93109.91
2023-10-25T06:50:35.370Z,93106.78
2023-10-25T06:51:32.309Z,93113.03
2023-10-25T06:52:29.215Z,93118.50
2023-10-25T06:53:26.188Z,93116.03
2023-10-25T06:54:23.095Z,93117.06
2023-10-25T06:55:20.143Z,93109.56
2023-10-25T06:56:17.106Z,93118.69
2023-10-25T06:57:14.889Z,93128.25
2023-10-25T06:58:11.971Z,93127.00
2023-10-25T06:59:09.315Z,93117.75
2023-10-25T07:00:10.232Z,93121.53
2023-10-25T07:01:08.404Z,93116.53
2023-10-25T07:02:41.989Z,93121.19
2023-10-25T07:03:45.584Z,93125.38
2023-10-25T07:04:44.061Z,93123.53
2023-10-25T07:05:43.480Z,93128.09
2023-10-25T07:06:40.771Z,93127.00
2023-10-25T07:07:39.279Z,93138.13
2023-10-25T07:08:36.504Z,93147.28
2023-10-25T07:09:33.557Z,93152.66
2023-10-25T07:10:31.010Z,93139.94
2023-10-25T07:11:27.767Z,93154.88
2023-10-25T07:12:24.970Z,93153.84
2023-10-25T07:13:21.713Z,93148.47
2023-10-25T07:14:18.524Z,93148.13
2023-10-25T07:15:15.727Z,93152.81
2023-10-25T07:16:12.822Z,93150.38
2023-10-25T07:17:09.760Z,93140.34
2023-10-25T07:18:06.653Z,93145.81
2023-10-25T07:19:04.191Z,93138.41
2023-10-25T07:20:00.918Z,93145.00
2023-10-25T07:20:59.423Z,93147.25
2023-10-25T07:21:56.155Z,93145.81
2023-10-25T07:22:52.882Z,93151.75
2023-10-25T07:23:49.638Z,93152.41
2023-10-25T07:24:46.403Z,93149.72
2023-10-25T07:25:44.322Z,93143.31
2023-10-25T07:26:42.347Z,93157.66
2023-10-25T07:27:39.330Z,93166.41
2023-10-25T07:28:36.101Z,93168.34
2023-10-25T07:29:32.832Z,93165.47
2023-10-25T07:30:29.617Z,93164.81
2023-10-25T07:31:26.492Z,93166.13
2023-10-25T07:32:23.277Z,93167.59
2023-10-25T07:33:20.062Z,93167.22
2023-10-25T07:34:16.842Z,93167.00
2023-10-25T07:35:13.572Z,93173.38
2023-10-25T07:36:10.525Z,93166.41
2023-10-25T07:37:07.443Z,93157.13
2023-10-25T07:38:04.198Z,93168.56
2023-10-25T07:39:01.353Z,93171.47
2023-10-25T07:39:58.093Z,93171.16
2023-10-25T07:41:51.458Z,93163.34
2023-10-25T07:42:48.188Z,93158.78
2023-10-25T07:43:45.140Z,93170.50
2023-10-25T07:44:42.022Z,93170.22
2023-10-25T07:45:38.852Z,93162.53
2023-10-25T07:46:35.731Z,93163.59
2023-10-25T07:47:32.565Z,93168.25
2023-10-25T07:48:29.237Z,93161.53
2023-10-25T07:49:26.181Z,93164.53
2023-10-25T07:50:22.854Z,93168.41
2023-10-25T07:51:19.550Z,93166.47
2023-10-25T07:52:17.791Z,93167.53
2023-10-25T07:53:14.624Z,93177.53
2023-10-25T07:54:11.310Z,93175.25
2023-10-25T07:55:28.137Z,93175.25
2023-10-25T07:57:07.778Z,93176.09
2023-10-25T07:58:41.553Z,93182.31
2023-10-25T07:59:38.999Z,93178.06
2023-10-25T08:00:35.781Z,93173.38
2023-10-25T08:01:32.548Z,93172.13
2023-10-25T08:02:29.433Z,93179.13
2023-10-25T08:03:27.750Z,93180.25
2023-10-25T08:04:24.860Z,93183.28
2023-10-25T08:05:21.653Z,93178.13
2023-10-25T08:06:18.587Z,93184.16
2023-10-25T08:07:15.383Z,93181.44
2023-10-25T08:08:12.139Z,93182.16
2023-10-25T08:09:08.875Z,93184.25
2023-10-25T08:10:07.282Z,93167.47
2023-10-25T08:11:06.004Z,93185.63
2023-10-25T08:12:02.787Z,93178.72
2023-10-25T08:12:59.471Z,93191.78
2023-10-25T08:13:56.400Z,93187.56
2023-10-25T08:14:53.188Z,93185.16
2023-10-25T08:15:57.336Z,93192.66
2023-10-25T08:16:54.044Z,93194.03
2023-10-25T08:17:54.988Z,93180.22
2023-10-25T08:18:51.739Z,93185.56
2023-10-25T08:19:48.418Z,93187.81
2023-10-25T08:20:45.152Z,93193.00
2023-10-25T08:21:42.008Z,93176.13
2023-10-25T08:22:38.730Z,93187.81
2023-10-25T08:23:35.888Z,93183.28
2023-10-25T08:24:33.034Z,93182.03
2023-10-25T08:25:29.742Z,93184.28
2023-10-25T08:26:27.729Z,93179.69
2023-10-25T08:27:24.431Z,93179.53
2023-10-25T08:28:21.274Z,93179.19
2023-10-25T08:29:18.008Z,93182.75
2023-10-25T08:30:15.758Z,93170.94
2023-10-25T08:31:13.628Z,93182.22
2023-10-25T08:32:10.323Z,93183.66
2023-10-25T08:33:07.440Z,93181.84
2023-10-25T08:34:04.545Z,93176.94
2023-10-25T08:35:01.299Z,93167.28
2023-10-25T08:36:02.942Z,93169.69
2023-10-25T08:37:00.072Z,93177.94
2023-10-25T08:37:56.832Z,93179.06
2023-10-25T08:38:54.058Z,93175.22
2023-10-25T08:39:50.816Z,93181.81
2023-10-25T08:40:47.470Z,93184.38
2023-10-25T08:41:48.069Z,93177.88
2023-10-25T08:42:45.185Z,93174.50
2023-10-25T08:43:41.939Z,93179.50
2023-10-25T08:44:40.742Z,93182.84
2023-10-25T08:45:37.625Z,93183.50
2023-10-25T08:46:35.052Z,93184.78
2023-10-25T08:47:31.776Z,93180.88
2023-10-25T08:48:28.780Z,93182.56
2023-10-25T08:49:25.647Z,93181.97
2023-10-25T08:50:22.379Z,93181.97
2023-10-25T08:51:19.659Z,93186.94
2023-10-25T08:52:23.661Z,93189.22
2023-10-25T08:53:25.627Z,93190.91
2023-10-25T08:54:25.248Z,93185.88
2023-10-25T08:55:22.071Z,93180.28
2023-10-25T08:56:18.960Z,93180.16
2023-10-25T08:57:18.554Z,93177.31
2023-10-25T08:58:16.995Z,93164.16
2023-10-25T08:59:13.678Z,93187.53
2023-10-25T09:00:13.173Z,93179.41
2023-10-25T09:01:09.864Z,93185.50
2023-10-25T09:02:07.173Z,93185.84
2023-10-25T09:03:04.821Z,93184.53
2023-10-25T09:04:09.059Z,93179.66
2023-10-25T09:05:10.022Z,93190.75
2023-10-25T09:06:08.844Z,93187.31
2023-10-25T09:07:33.623Z,93182.28
2023-10-25T09:08:31.746Z,93171.75
2023-10-25T09:09:40.555Z,93179.03
2023-10-25T09:10:37.564Z,93172.94
2023-10-25T09:11:45.262Z,93158.78
2023-10-25T09:12:42.045Z,93179.81
2023-10-25T09:13:44.614Z,93179.81
2023-10-25T09:14:48.784Z,93178.66
2023-10-25T09:15:46.398Z,93166.53
2023-10-25T09:16:44.949Z,93164.97
2023-10-25T09:17:41.733Z,93171.72
2023-10-25T09:18:39.823Z,93171.53
2023-10-25T09:19:36.687Z,93170.13
2023-10-25T09:20:33.828Z,93174.31
2023-10-25T09:21:30.943Z,93165.28
2023-10-25T09:22:31.610Z,93172.13
2023-10-25T09:23:29.593Z,93179.94
2023-10-25T09:24:26.329Z,93180.03
2023-10-25T09:25:31.007Z,93185.97
2023-10-25T09:26:34.726Z,93182.31
2023-10-25T09:27:33.881Z,93180.91
2023-10-25T09:28:31.661Z,93183.44
2023-10-25T09:29:32.901Z,93184.28
2023-10-25T09:30:31.389Z,93175.22
2023-10-25T09:31:31.985Z,93181.56
2023-10-25T09:32:28.792Z,93175.06
2023-10-25T09:33:28.491Z,93175.56
2023-10-25T09:34:25.336Z,93182.94
2023-10-25T09:35:22.234Z,93182.06
2023-10-25T09:36:22.594Z,93176.84
2023-10-25T09:37:19.640Z,93168.47
2023-10-25T09:38:17.054Z,93173.16
2023-10-25T09:39:13.667Z,93168.25
2023-10-25T09:40:11.338Z,93173.66
2023-10-25T09:41:14.998Z,93178.31
2023-10-25T09:42:14.140Z,93160.22
2023-10-25T09:43:21.679Z,93176.28
2023-10-25T09:44:20.833Z,93161.72
2023-10-25T09:45:25.043Z,93169.31
2023-10-25T09:46:24.352Z,93167.06
2023-10-25T09:47:26.282Z,93170.72
2023-10-25T09:48:23.576Z,93168.03
2023-10-25T09:49:23.877Z,93169.97
2023-10-25T09:50:33.112Z,93169.75
2023-10-25T09:51:54.996Z,93169.88
2023-10-25T09:53:00.094Z,93165.53
2023-10-25T09:54:10.168Z,93158.91
2023-10-25T09:55:19.475Z,93159.75
2023-10-25T09:56:17.504Z,93153.22
2023-10-25T09:57:15.172Z,93148.34
2023-10-25T09:58:14.108Z,93157.16
2023-10-25T09:59:12.872Z,93148.28
2023-10-25T10:00:10.790Z,93153.59
2023-10-25T10:01:10.603Z,93153.72
2023-10-25T10:02:09.804Z,93150.91
2023-10-25T10:03:27.247Z,93148.94
2023-10-25T10:04:58.820Z,93144.53
2023-10-25T10:06:34.677Z,93139.97
2023-10-25T10:07:56.094Z,93143.28
2023-10-25T10:09:14.376Z,93145.00
2023-10-25T10:10:28.515Z,93143.41
2023-10-25T10:11:28.308Z,93135.16
2023-10-25T10:12:25.081Z,93136.03
2023-10-25T10:13:22.065Z,93131.44
2023-10-25T10:14:38.829Z,93132.81
2023-10-25T10:16:01.882Z,93138.00
2023-10-25T10:17:16.446Z,93124.31
2023-10-25T10:18:13.328Z,93134.25
2023-10-25T10:19:12.396Z,93128.22
2023-10-25T10:20:22.118Z,93117.97
2023-10-25T10:21:18.847Z,93115.50
2023-10-25T10:22:17.982Z,93114.41
2023-10-25T10:23:17.741Z,93110.97
2023-10-25T10:25:01.755Z,93114.09
2023-10-25T10:25:58.563Z,93109.41
2023-10-25T10:26:55.288Z,93107.34
2023-10-25T10:28:02.406Z,93095.75
2023-10-25T10:28:59.000Z,93103.53
2023-10-25T10:29:56.568Z,93100.69
2023-10-25T10:30:55.949Z,93099.41
2023-10-25T10:31:59.857Z,93101.84
2023-10-25T10:32:57.648Z,93100.38
2023-10-25T10:33:54.371Z,93097.53
2023-10-25T10:34:58.793Z,93094.22
2023-10-25T10:36:01.381Z,93092.56
2023-10-25T10:37:14.208Z,93091.56
2023-10-25T10:38:10.862Z,93093.66
2023-10-25T10:39:18.080Z,93090.44
2023-10-25T10:40:15.381Z,93084.22
2023-10-25T10:41:15.053Z,93087.78
2023-10-25T10:42:20.805Z,93091.44
2023-10-25T10:43:17.764Z,93092.09
2023-10-25T10:44:14.488Z,93085.03
2023-10-25T10:45:13.986Z,93081.84
2023-10-25T10:46:12.387Z,93079.41
2023-10-25T10:47:12.310Z,93079.47
2023-10-25T10:48:25.830Z,93076.03
2023-10-25T10:49:23.756Z,93075.91
2023-10-25T10:50:23.367Z,93081.06
2023-10-25T10:51:20.040Z,93083.09
2023-10-25T10:52:16.913Z,93074.97
2023-10-25T10:53:13.559Z,93075.09
2023-10-25T10:54:10.280Z,93067.69
2023-10-25T10:55:08.911Z,93071.41
2023-10-25T10:56:05.699Z,93083.06
2023-10-25T10:57:02.887Z,93074.59
2023-10-25T10:58:08.458Z,93069.97
2023-10-25T10:59:07.300Z,93084.22
2023-10-25T11:00:11.302Z,93068.03
2023-10-25T11:01:08.138Z,93080.44
2023-10-25T11:02:05.436Z,93079.41
2023-10-25T11:03:05.808Z,93077.34
2023-10-25T11:04:05.166Z,93078.00
2023-10-25T11:05:01.991Z,93070.78
2023-10-25T11:06:00.104Z,93078.81
2023-10-25T11:06:56.879Z,93073.19
2023-10-25T11:07:55.070Z,93072.00
2023-10-25T11:08:52.573Z,93069.31
2023-10-25T11:09:49.267Z,93071.75
2023-10-25T11:10:45.962Z,93060.66
2023-10-25T11:11:42.627Z,93064.16
2023-10-25T11:12:40.585Z,93055.78
2023-10-25T11:13:37.447Z,93057.88
2023-10-25T11:14:47.217Z,93060.47
2023-10-25T11:15:43.899Z,93056.44
2023-10-25T11:16:40.665Z,93068.91
2023-10-25T11:17:38.008Z,93054.84
2023-10-25T11:18:34.743Z,93061.09
2023-10-25T11:19:34.699Z,93065.13
2023-10-25T11:20:32.560Z,93065.28
2023-10-25T11:21:33.567Z,93065.97
2023-10-25T11:22:33.210Z,93066.41
2023-10-25T11:23:30.198Z,93060.53
2023-10-25T11:24:27.743Z,93055.72
2023-10-25T11:25:28.814Z,93069.75
2023-10-25T11:26:25.504Z,93064.22
2023-10-25T11:27:22.403Z,93064.88
2023-10-25T11:28:21.569Z,93071.72
2023-10-25T11:29:18.205Z,93068.16
2023-10-25T11:30:15.821Z,93070.44
2023-10-25T11:31:12.555Z,93072.44
2023-10-25T11:32:15.726Z,93070.59